createdAt,value
2022-11-21T00:00:03.926Z,5.00
2022-11-21T00:02:28.036Z,5.00
2022-11-21T00:04:51.314Z,5.00
2022-11-21T00:07:14.577Z,5.00
2022-11-21T00:09:37.873Z,5.10
2022-11-21T00:12:01.107Z,5.10
2022-11-21T00:14:24.747Z,5.10
2022-11-21T00:16:52.141Z,5.00
2022-11-21T00:19:19.527Z,5.00
2022-11-21T00:21:42.888Z,4.90
2022-11-21T00:24:07.508Z,4.90
2022-11-21T00:26:30.804Z,5.00
2022-11-21T00:28:54.018Z,5.10
2022-11-21T00:31:22.700Z,5.10
2022-11-21T00:33:47.436Z,5.00
2022-11-21T00:36:11.463Z,4.80
2022-11-21T00:38:34.798Z,4.70
2022-11-21T00:40:58.056Z,4.50
2022-11-21T00:43:21.338Z,4.60
2022-11-21T00:45:44.601Z,4.50
2022-11-21T00:48:08.454Z,4.30
2022-11-21T00:50:33.173Z,4.30
2022-11-21T00:52:57.229Z,4.50
2022-11-21T00:55:20.528Z,4.60
2022-11-21T00:57:43.913Z,4.50
2022-11-21T01:00:09.148Z,4.50
2022-11-21T01:02:33.967Z,4.50
2022-11-21T01:04:57.259Z,4.40
2022-11-21T01:07:22.030Z,4.30
2022-11-21T01:09:45.322Z,4.40
2022-11-21T01:12:08.669Z,4.20
2022-11-21T01:14:32.036Z,4.40
2022-11-21T01:16:55.321Z,4.20
2022-11-21T01:19:18.659Z,4.20
2022-11-21T01:21:41.945Z,4.20
2022-11-21T01:24:07.175Z,4.50
2022-11-21T01:26:32.988Z,4.50
2022-11-21T01:28:56.886Z,4.50
2022-11-21T01:31:22.411Z,4.40
2022-11-21T01:33:46.326Z,4.30
2022-11-21T01:36:12.480Z,4.30
2022-11-21T01:38:35.944Z,4.40
2022-11-21T01:41:00.606Z,4.40
2022-11-21T01:43:23.856Z,4.30
2022-11-21T01:45:56.634Z,4.30
2022-11-21T01:48:20.602Z,4.30
2022-11-21T01:50:44.064Z,4.30
2022-11-21T01:53:07.465Z,4.20
2022-11-21T01:55:30.821Z,4.10
2022-11-21T01:57:55.611Z,4.10
2022-11-21T02:00:24.133Z,4.20
2022-11-21T02:02:55.294Z,4.30
2022-11-21T02:05:23.493Z,4.40
2022-11-21T02:07:49.582Z,4.20
2022-11-21T02:10:14.495Z,4.20
2022-11-21T02:12:47.202Z,4.50
2022-11-21T02:15:13.541Z,4.40
2022-11-21T02:17:37.000Z,4.40
2022-11-21T02:20:02.499Z,4.40
2022-11-21T02:22:37.080Z,4.20
2022-11-21T02:25:08.420Z,4.20
2022-11-21T02:27:31.959Z,4.20
2022-11-21T02:29:55.512Z,4.20
2022-11-21T02:32:23.380Z,4.40
2022-11-21T02:34:46.687Z,4.20
2022-11-21T02:37:10.864Z,4.40
2022-11-21T02:39:37.724Z,4.30
2022-11-21T02:42:09.978Z,4.20
2022-11-21T02:44:42.024Z,4.20
2022-11-21T02:47:05.954Z,4.30
2022-11-21T02:49:39.390Z,4.50
2022-11-21T02:52:02.628Z,4.30
2022-11-21T02:54:26.069Z,4.30
2022-11-21T02:56:49.693Z,4.30
2022-11-21T02:59:14.270Z,4.10
2022-11-21T03:01:37.571Z,4.10
2022-11-21T03:04:00.771Z,4.20
2022-11-21T03:06:24.004Z,4.20
2022-11-21T03:08:47.309Z,4.20
2022-11-21T03:11:10.648Z,4.30
2022-11-21T03:13:33.877Z,4.20
2022-11-21T03:16:00.412Z,4.10
2022-11-21T03:18:23.724Z,4.30
2022-11-21T03:20:47.109Z,4.40
2022-11-21T03:23:10.501Z,4.50
2022-11-21T03:25:33.776Z,4.50
2022-11-21T03:27:57.082Z,4.10
2022-11-21T03:30:21.055Z,4.10
2022-11-21T03:32:45.687Z,4.40
2022-11-21T03:35:09.611Z,4.20
2022-11-21T03:37:33.048Z,4.10
2022-11-21T03:39:56.341Z,4.10
2022-11-21T03:42:19.583Z,4.00
2022-11-21T03:44:43.367Z,4.10
2022-11-21T03:47:06.617Z,4.00
2022-11-21T03:49:31.285Z,4.10
2022-11-21T03:51:54.552Z,4.00
2022-11-21T03:54:17.942Z,4.20
2022-11-21T03:56:41.224Z,4.10
2022-11-21T03:59:04.948Z,4.10
2022-11-21T04:01:32.447Z,4.10
2022-11-21T04:03:59.914Z,4.30
2022-11-21T04:06:24.737Z,4.00
2022-11-21T04:08:48.406Z,4.10
2022-11-21T04:11:12.058Z,4.10
2022-11-21T04:13:35.683Z,4.30
2022-11-21T04:15:59.036Z,4.10
2022-11-21T04:18:22.627Z,4.10
2022-11-21T04:20:46.159Z,4.00
2022-11-21T04:23:34.465Z,4.10
2022-11-21T04:26:04.013Z,4.00
2022-11-21T04:28:27.407Z,4.00
2022-11-21T04:30:54.761Z,4.00
2022-11-21T04:33:19.287Z,4.10
2022-11-21T04:35:44.334Z,4.00
2022-11-21T04:38:07.934Z,4.00
2022-11-21T04:40:32.566Z,3.90
2022-11-21T04:42:55.891Z,4.00
2022-11-21T04:45:19.177Z,4.10
2022-11-21T04:47:45.617Z,4.20
2022-11-21T04:50:10.611Z,4.20
2022-11-21T04:52:34.476Z,4.00
2022-11-21T04:54:57.886Z,4.10
2022-11-21T04:57:22.701Z,4.10
2022-11-21T04:59:46.120Z,3.90
2022-11-21T05:02:09.359Z,3.90
2022-11-21T05:04:32.628Z,3.80
2022-11-21T05:06:55.806Z,3.90
2022-11-21T05:09:19.003Z,4.00
2022-11-21T05:11:59.571Z,3.90
2022-11-21T05:14:26.306Z,4.10
2022-11-21T05:16:49.744Z,4.10
2022-11-21T05:19:13.249Z,4.00
2022-11-21T05:21:36.470Z,4.20
2022-11-21T05:23:59.873Z,4.20
2022-11-21T05:26:23.222Z,4.00
2022-11-21T05:28:47.662Z,4.00
2022-11-21T05:31:12.274Z,4.20
2022-11-21T05:33:35.660Z,4.30
2022-11-21T05:35:58.953Z,4.10
2022-11-21T05:38:22.258Z,4.00
2022-11-21T05:40:45.468Z,4.00
2022-11-21T05:43:26.499Z,4.10
2022-11-21T05:45:51.089Z,4.20
2022-11-21T05:48:15.851Z,4.30
2022-11-21T05:50:39.128Z,4.40
2022-11-21T05:53:04.536Z,4.50
2022-11-21T05:55:27.837Z,4.40
2022-11-21T05:57:51.105Z,4.50
2022-11-21T06:00:16.383Z,4.30
2022-11-21T06:02:56.963Z,4.20
2022-11-21T06:05:21.898Z,4.20
2022-11-21T06:07:45.168Z,4.10
2022-11-21T06:10:09.346Z,4.20
2022-11-21T06:12:33.215Z,4.30
2022-11-21T06:14:56.531Z,4.40
2022-11-21T06:17:19.800Z,4.50
2022-11-21T06:19:43.044Z,4.30
2022-11-21T06:22:07.689Z,4.30
2022-11-21T06:24:31.072Z,4.40
2022-11-21T06:26:54.326Z,4.40
2022-11-21T06:29:17.860Z,4.30
2022-11-21T06:31:41.240Z,4.30
2022-11-21T06:34:04.500Z,4.30
2022-11-21T06:36:28.377Z,4.40
2022-11-21T06:38:55.740Z,4.40
2022-11-21T06:41:21.160Z,4.40
2022-11-21T06:43:45.049Z,4.30
2022-11-21T06:46:08.854Z,4.20
2022-11-21T06:48:32.250Z,4.30
2022-11-21T06:50:55.687Z,4.20
2022-11-21T06:53:19.516Z,4.20
2022-11-21T06:55:44.571Z,4.40
2022-11-21T06:58:07.893Z,4.40
2022-11-21T07:00:31.349Z,4.50
2022-11-21T07:02:58.721Z,4.40
2022-11-21T07:05:24.919Z,4.40
2022-11-21T07:07:48.297Z,4.40
2022-11-21T07:10:12.093Z,4.40
2022-11-21T07:12:55.233Z,4.30
2022-11-21T07:15:18.676Z,4.30
2022-11-21T07:17:42.147Z,4.30
2022-11-21T07:20:06.782Z,4.30
2022-11-21T07:22:30.069Z,4.30
2022-11-21T07:24:53.278Z,4.30
2022-11-21T07:27:16.585Z,4.30
2022-11-21T07:29:41.246Z,4.40
2022-11-21T07:32:04.563Z,4.40
2022-11-21T07:34:28.473Z,4.40
2022-11-21T07:36:51.754Z,4.40
2022-11-21T07:39:25.643Z,4.50
2022-11-21T07:41:49.519Z,4.50
2022-11-21T07:44:12.803Z,4.50
2022-11-21T07:46:37.485Z,4.70
2022-11-21T07:49:03.496Z,4.80
2022-11-21T07:51:27.191Z,4.80
2022-11-21T07:53:50.553Z,4.70
2022-11-21T07:56:13.907Z,4.70
2022-11-21T07:58:37.663Z,4.80
2022-11-21T08:01:05.236Z,4.80
2022-11-21T08:03:29.947Z,4.70
2022-11-21T08:05:53.275Z,4.80
2022-11-21T08:08:17.280Z,4.90
2022-11-21T08:10:42.866Z,5.00
2022-11-21T08:13:06.179Z,5.00
2022-11-21T08:15:29.532Z,5.00
2022-11-21T08:17:52.860Z,5.10
2022-11-21T08:20:17.717Z,5.10
2022-11-21T08:22:41.227Z,5.20
2022-11-21T08:25:05.029Z,5.20
2022-11-21T08:27:29.795Z,5.30
2022-11-21T08:29:53.094Z,5.30
2022-11-21T08:32:16.751Z,5.30
2022-11-21T08:34:40.094Z,5.40
2022-11-21T08:37:07.671Z,5.40
2022-11-21T08:39:31.445Z,5.40
2022-11-21T08:42:06.652Z,5.50
2022-11-21T08:44:30.716Z,5.50
2022-11-21T08:46:54.056Z,5.60
2022-11-21T08:49:17.295Z,5.60
2022-11-21T08:51:40.947Z,5.70
2022-11-21T08:54:05.847Z,5.70
2022-11-21T08:56:29.605Z,5.70
2022-11-21T08:58:53.050Z,5.70
2022-11-21T09:01:16.312Z,5.90
2022-11-21T09:03:39.630Z,5.90
2022-11-21T09:06:02.859Z,5.90
2022-11-21T09:08:26.302Z,5.90
2022-11-21T09:10:50.971Z,5.90
2022-11-21T09:13:14.265Z,5.90
2022-11-21T09:15:55.269Z,6.00
2022-11-21T09:18:18.684Z,6.00
2022-11-21T09:20:44.601Z,6.10
2022-11-21T09:23:09.483Z,6.20
2022-11-21T09:25:32.795Z,6.40
2022-11-21T09:28:01.038Z,6.40
2022-11-21T09:30:24.414Z,6.50
2022-11-21T09:32:47.745Z,6.50
2022-11-21T09:35:11.314Z,6.60
2022-11-21T09:37:38.315Z,6.60
2022-11-21T09:40:01.640Z,6.60
2022-11-21T09:42:51.593Z,6.70
2022-11-21T09:45:20.962Z,6.90
2022-11-21T09:47:48.052Z,6.90
2022-11-21T09:50:27.453Z,6.90
2022-11-21T09:52:57.120Z,7.00
2022-11-21T09:55:29.460Z,6.90
2022-11-21T09:57:52.752Z,6.90
2022-11-21T10:00:23.540Z,7.00
2022-11-21T10:02:47.088Z,6.90
2022-11-21T10:05:15.669Z,6.80
2022-11-21T10:07:39.532Z,6.90
2022-11-21T10:10:22.348Z,7.00
2022-11-21T10:13:01.450Z,7.00
2022-11-21T10:15:49.346Z,7.00
2022-11-21T10:18:36.711Z,7.00
2022-11-21T10:21:13.946Z,7.10
2022-11-21T10:24:04.379Z,7.10
2022-11-21T10:26:37.814Z,7.20
2022-11-21T10:29:07.737Z,7.30
2022-11-21T10:31:39.139Z,7.40
2022-11-21T10:34:05.076Z,7.40
2022-11-21T10:36:33.257Z,7.50
2022-11-21T10:39:02.353Z,7.50
2022-11-21T10:41:38.807Z,7.50
2022-11-21T10:44:31.643Z,7.50
2022-11-21T10:47:00.611Z,7.50
2022-11-21T10:49:24.580Z,7.50
2022-11-21T10:51:57.530Z,7.50
2022-11-21T10:54:36.535Z,7.50
2022-11-21T10:57:07.171Z,7.60
2022-11-21T10:59:31.891Z,7.60
2022-11-21T11:02:02.590Z,7.70
2022-11-21T11:04:28.997Z,7.90
2022-11-21T11:06:53.035Z,8.00
2022-11-21T11:09:32.121Z,7.90
2022-11-21T11:12:45.180Z,7.80
2022-11-21T11:15:19.887Z,7.70
2022-11-21T11:17:44.864Z,7.60
2022-11-21T11:20:33.436Z,7.70
2022-11-21T11:22:56.772Z,7.70
2022-11-21T11:25:20.016Z,7.80
2022-11-21T11:27:43.294Z,7.80
2022-11-21T11:30:09.478Z,7.90
2022-11-21T11:32:32.950Z,7.80
2022-11-21T11:35:02.937Z,7.80
2022-11-21T11:37:40.356Z,7.70
2022-11-21T11:40:18.902Z,7.80
2022-11-21T11:43:26.954Z,7.80
2022-11-21T11:46:22.286Z,7.90
2022-11-21T11:49:11.418Z,8.00
2022-11-21T11:51:38.584Z,8.00
2022-11-21T11:54:09.343Z,8.20
2022-11-21T11:56:37.114Z,8.30
2022-11-21T11:59:06.709Z,8.40
2022-11-21T12:01:37.426Z,8.50
2022-11-21T12:04:04.864Z,8.50
2022-11-21T12:07:10.733Z,8.60
2022-11-21T12:09:28.327Z,8.70
2022-11-21T12:12:08.207Z,8.70
2022-11-21T12:15:11.977Z,8.60
2022-11-21T12:17:43.107Z,8.70
2022-11-21T12:20:17.162Z,8.80
2022-11-21T12:22:42.104Z,8.90
2022-11-21T12:25:11.225Z,8.90
2022-11-21T12:27:35.324Z,8.80
2022-11-21T12:30:47.386Z,8.90
2022-11-21T12:33:21.320Z,8.80
2022-11-21T12:36:18.344Z,8.70
2022-11-21T12:39:15.538Z,8.50
2022-11-21T12:42:04.366Z,8.70
2022-11-21T12:44:44.977Z,8.60
2022-11-21T12:47:25.979Z,8.50
2022-11-21T12:50:29.259Z,8.40
2022-11-21T12:53:17.724Z,8.40
2022-11-21T12:55:43.559Z,8.40
2022-11-21T12:58:27.440Z,8.50
2022-11-21T13:01:21.571Z,8.50
2022-11-21T13:03:53.729Z,8.50
2022-11-21T13:06:23.787Z,8.50
2022-11-21T13:08:49.623Z,8.50
2022-11-21T13:11:44.685Z,8.50
2022-11-21T13:14:19.307Z,8.50
2022-11-21T13:16:48.545Z,8.60
2022-11-21T13:19:24.545Z,8.60
2022-11-21T13:21:50.013Z,8.60
2022-11-21T13:24:51.157Z,8.60
2022-11-21T13:27:36.487Z,8.60
2022-11-21T13:30:26.420Z,8.60
2022-11-21T13:32:51.864Z,8.60
2022-11-21T13:36:00.268Z,8.60
2022-11-21T13:38:23.647Z,8.60
2022-11-21T13:41:00.769Z,8.60
2022-11-21T13:43:33.823Z,8.60
2022-11-21T13:45:59.343Z,8.50
2022-11-21T13:48:42.535Z,8.50
2022-11-21T13:51:37.818Z,8.50
2022-11-21T13:54:56.437Z,8.50
2022-11-21T13:57:49.893Z,8.50
2022-11-21T14:00:35.990Z,8.50
2022-11-21T14:03:43.794Z,8.50
2022-11-21T14:06:37.640Z,8.50
2022-11-21T14:09:20.253Z,8.40
2022-11-21T14:11:49.963Z,8.50
2022-11-21T14:14:14.243Z,8.40
2022-11-21T14:16:47.240Z,8.40
2022-11-21T14:19:15.285Z,8.30
2022-11-21T14:21:38.685Z,8.30
2022-11-21T14:24:14.717Z,8.20
2022-11-21T14:26:43.810Z,8.20
2022-11-21T14:29:22.644Z,8.10
2022-11-21T14:31:48.984Z,8.10
2022-11-21T14:34:12.329Z,8.00
2022-11-21T14:36:35.699Z,8.00
2022-11-21T14:39:37.373Z,8.00
2022-11-21T14:41:49.813Z,7.90
2022-11-21T14:44:20.068Z,7.90
2022-11-21T14:46:44.467Z,7.80
2022-11-21T14:49:30.294Z,7.80
2022-11-21T14:52:03.985Z,7.80
2022-11-21T14:54:31.829Z,7.70
2022-11-21T14:57:01.106Z,7.70
2022-11-21T14:59:27.719Z,7.70
2022-11-21T15:02:00.816Z,7.60
2022-11-21T15:04:32.694Z,7.60
2022-11-21T15:06:56.097Z,7.50
2022-11-21T15:12:07.843Z,7.50
2022-11-21T15:14:36.509Z,7.40
2022-11-21T15:17:04.022Z,7.30
2022-11-21T15:19:30.159Z,7.30
2022-11-21T15:21:57.490Z,7.20
2022-11-21T15:24:32.886Z,7.30
2022-11-21T15:26:56.249Z,7.30
2022-11-21T15:29:22.153Z,7.20
2022-11-21T15:31:46.280Z,7.20
2022-11-21T15:37:08.347Z,7.30
2022-11-21T15:39:32.106Z,7.20
2022-11-21T15:41:55.364Z,7.30
2022-11-21T15:44:25.255Z,7.30
2022-11-21T15:46:53.168Z,7.30
2022-11-21T15:49:32.586Z,7.20
2022-11-21T15:52:07.712Z,7.30
2022-11-21T15:54:34.100Z,7.20
2022-11-21T15:56:57.395Z,7.20
2022-11-21T15:59:21.391Z,7.20
2022-11-21T16:01:44.751Z,7.20
2022-11-21T16:04:10.829Z,7.20
2022-11-21T16:06:34.834Z,7.20
2022-11-21T16:08:58.591Z,7.20
2022-11-21T16:11:25.928Z,7.20
2022-11-21T16:13:58.664Z,7.20
2022-11-21T16:16:25.343Z,7.30
2022-11-21T16:18:49.225Z,7.20
2022-11-21T16:21:13.030Z,7.20
2022-11-21T16:23:36.712Z,7.30
2022-11-21T16:26:00.091Z,7.20
2022-11-21T16:28:25.006Z,7.30
2022-11-21T16:30:48.360Z,7.30
2022-11-21T16:33:11.702Z,7.30
2022-11-21T16:35:35.013Z,7.30
2022-11-21T16:37:58.287Z,7.30
2022-11-21T16:40:21.940Z,7.30
2022-11-21T16:42:45.287Z,7.30
2022-11-21T16:45:11.485Z,7.30
2022-11-21T16:47:38.114Z,7.30
2022-11-21T16:50:01.390Z,7.30
2022-11-21T16:52:24.683Z,7.30
2022-11-21T16:54:48.039Z,7.30
2022-11-21T16:57:11.398Z,7.30
2022-11-21T16:59:34.696Z,7.20
2022-11-21T17:01:59.436Z,7.30
2022-11-21T17:04:22.741Z,7.30
2022-11-21T17:06:48.826Z,7.30
2022-11-21T17:09:12.618Z,7.20
2022-11-21T17:11:36.022Z,7.30
2022-11-21T17:14:02.523Z,7.20
2022-11-21T17:16:26.082Z,7.10
2022-11-21T17:18:54.888Z,7.10
2022-11-21T17:21:18.320Z,7.10
2022-11-21T17:23:44.285Z,7.10
2022-11-21T17:26:09.805Z,7.10
2022-11-21T17:28:33.967Z,7.10
2022-11-21T17:30:57.286Z,7.10
2022-11-21T17:33:21.808Z,7.10
2022-11-21T17:35:47.010Z,7.10
2022-11-21T17:38:10.355Z,7.10
2022-11-21T17:40:34.147Z,7.10
2022-11-21T17:42:57.624Z,7.10
2022-11-21T17:45:21.017Z,7.00
2022-11-21T17:47:47.036Z,7.00
2022-11-21T17:50:10.775Z,7.00
2022-11-21T17:52:35.588Z,7.00
2022-11-21T17:54:59.045Z,7.00
2022-11-21T17:57:22.319Z,7.00
2022-11-21T17:59:47.105Z,6.90
2022-11-21T18:02:10.895Z,7.00
2022-11-21T18:04:38.838Z,7.00
2022-11-21T18:07:02.828Z,7.00
2022-11-21T18:09:28.410Z,7.00
2022-11-21T18:11:52.286Z,7.00
2022-11-21T18:14:16.228Z,7.00
2022-11-21T18:16:42.731Z,7.00
2022-11-21T18:19:13.904Z,7.00
2022-11-21T18:21:37.439Z,7.00
2022-11-21T18:24:01.029Z,7.00
2022-11-21T18:26:28.597Z,7.00
2022-11-21T18:29:13.084Z,7.00
2022-11-21T18:31:37.673Z,7.00
2022-11-21T18:34:03.327Z,7.00
2022-11-21T18:36:28.652Z,7.00
2022-11-21T18:38:58.449Z,7.00
2022-11-21T18:41:29.199Z,7.00
2022-11-21T18:43:54.548Z,7.00
2022-11-21T18:46:18.314Z,7.00
2022-11-21T18:49:01.599Z,7.00
2022-11-21T18:51:28.802Z,7.00
2022-11-21T18:53:53.224Z,7.00
2022-11-21T18:56:17.297Z,7.00
2022-11-21T18:58:43.855Z,7.00
2022-11-21T19:01:09.235Z,7.00
2022-11-21T19:03:33.529Z,7.00
2022-11-21T19:05:56.855Z,7.00
2022-11-21T19:08:20.184Z,7.00
2022-11-21T19:10:43.936Z,7.00
2022-11-21T19:13:07.505Z,7.00
2022-11-21T19:15:32.207Z,7.00
2022-11-21T19:17:55.615Z,7.00
2022-11-21T19:20:19.033Z,7.00
2022-11-21T19:22:42.263Z,7.00
2022-11-21T19:25:06.280Z,7.00
2022-11-21T19:27:29.678Z,7.00
2022-11-21T19:29:55.387Z,7.00
2022-11-21T19:32:20.005Z,7.00
2022-11-21T19:34:43.516Z,7.00
2022-11-21T19:37:06.975Z,7.00
2022-11-21T19:39:31.594Z,7.00
2022-11-21T19:41:55.283Z,7.00
2022-11-21T19:44:18.856Z,7.00
2022-11-21T19:46:42.560Z,7.10
2022-11-21T19:49:08.500Z,7.10
2022-11-21T19:51:34.685Z,7.10
2022-11-21T19:53:58.001Z,7.10
2022-11-21T19:56:23.565Z,7.10
2022-11-21T19:58:47.896Z,7.10
2022-11-21T20:01:13.585Z,7.10
2022-11-21T20:03:37.689Z,7.10
2022-11-21T20:06:05.415Z,7.10
2022-11-21T20:08:28.799Z,7.10
2022-11-21T20:10:52.218Z,7.10
2022-11-21T20:13:15.570Z,7.20
2022-11-21T20:15:39.750Z,7.20
2022-11-21T20:18:03.012Z,7.10
2022-11-21T20:20:26.290Z,7.20
2022-11-21T20:22:51.010Z,7.10
2022-11-21T20:25:14.351Z,7.10
2022-11-21T20:27:37.975Z,7.10
2022-11-21T20:30:01.217Z,7.20
2022-11-21T20:32:25.450Z,7.20
2022-11-21T20:34:48.714Z,7.20
2022-11-21T20:37:11.934Z,7.20
2022-11-21T20:39:36.594Z,7.10
2022-11-21T20:42:00.405Z,7.10
2022-11-21T20:47:08.371Z,7.20
2022-11-21T20:49:31.964Z,7.10
2022-11-21T20:54:40.141Z,7.20
2022-11-21T20:57:03.422Z,7.10
2022-11-21T20:59:27.557Z,7.10
2022-11-21T21:01:51.255Z,7.10
2022-11-21T21:04:22.873Z,7.10
2022-11-21T21:06:46.156Z,7.10
2022-11-21T21:09:09.408Z,7.10
2022-11-21T21:14:17.343Z,7.00
2022-11-21T21:16:40.768Z,7.00
2022-11-21T21:19:07.548Z,7.10
2022-11-21T21:21:32.997Z,7.10
2022-11-21T21:23:58.818Z,7.10
2022-11-21T21:26:24.769Z,7.10
2022-11-21T21:28:49.966Z,7.00
2022-11-21T21:31:16.378Z,7.00
2022-11-21T21:33:40.406Z,7.00
2022-11-21T21:36:09.488Z,7.00
2022-11-21T21:38:32.804Z,7.00
2022-11-21T21:40:56.394Z,7.00
2022-11-21T21:43:19.679Z,7.00
2022-11-21T21:45:44.253Z,7.00
2022-11-21T21:48:07.972Z,7.00
2022-11-21T21:50:31.219Z,7.00
2022-11-21T21:52:54.684Z,7.00
2022-11-21T21:55:17.992Z,7.00
2022-11-21T21:57:46.013Z,7.00
2022-11-21T22:00:13.697Z,7.00
2022-11-21T22:02:40.523Z,7.00
2022-11-21T22:05:04.190Z,7.00
2022-11-21T22:07:27.487Z,7.10
2022-11-21T22:09:50.900Z,7.10
2022-11-21T22:12:14.236Z,7.00
2022-11-21T22:14:37.665Z,7.10
2022-11-21T22:17:00.926Z,7.00
2022-11-21T22:19:25.556Z,7.00
2022-11-21T22:21:48.843Z,7.00
2022-11-21T22:24:25.436Z,7.00
2022-11-21T22:26:49.543Z,7.00
2022-11-21T22:29:12.753Z,6.90
2022-11-21T22:31:37.406Z,6.80
2022-11-21T22:34:00.922Z,6.90
2022-11-21T22:36:25.551Z,6.80
2022-11-21T22:38:48.899Z,6.90
2022-11-21T22:41:16.547Z,6.70
2022-11-21T22:43:40.345Z,6.80
2022-11-21T22:46:04.528Z,6.70
2022-11-21T22:48:28.137Z,6.70
2022-11-21T22:50:51.589Z,6.70
2022-11-21T22:53:16.211Z,6.60
2022-11-21T22:55:39.430Z,6.60
2022-11-21T22:58:02.726Z,6.60
2022-11-21T23:00:26.361Z,6.50
2022-11-21T23:02:49.622Z,6.60
2022-11-21T23:05:12.885Z,6.60
2022-11-21T23:07:36.215Z,6.50
2022-11-21T23:10:00.959Z,6.60
2022-11-21T23:12:24.877Z,6.60
2022-11-21T23:14:48.272Z,6.50
2022-11-21T23:17:11.510Z,6.60
2022-11-21T23:19:34.792Z,6.60
2022-11-21T23:21:58.032Z,6.60
2022-11-21T23:24:21.404Z,6.60
2022-11-21T23:26:46.048Z,6.70
2022-11-21T23:29:09.376Z,6.60
2022-11-21T23:31:33.556Z,6.70
2022-11-21T23:33:56.910Z,6.70
2022-11-21T23:36:20.186Z,6.70
2022-11-21T23:38:43.473Z,6.70
2022-11-21T23:41:06.759Z,6.70
2022-11-21T23:43:31.456Z,6.80
2022-11-21T23:45:55.535Z,6.80
2022-11-21T23:48:19.241Z,6.80
2022-11-21T23:50:42.555Z,6.70
2022-11-21T23:53:05.863Z,6.80
2022-11-21T23:55:29.388Z,6.80
2022-11-21T23:57:53.049Z,6.70
